Terminal Aerodrome Forecast
Issued by NWS Norman, OK

Home | Current Version | Previous Version | Text Only | Print | Product List | Glossary On
Versions: 1 2 3 4 5 6 7 8 9 10 11 12 13 14 15
000
FTUS44 KOUN 041733
TAFSPS
TAF
KSPS 041733Z 0418/0518 36008KT P6SM BKN022
     FM042000 01008KT P6SM SCT025 SCT250
     FM050100 VRB03KT P6SM SCT250
     FM051400 16007KT P6SM SCT050 BKN120=

USA.gov is the U.S. government's official web portal to all federal, state and local government web resources and services.